sensor_id;sensor_type;location;lat;lon;timestamp;P1;durP1;ratioP1;P2;durP2;ratioP2
59970;SDS011;45825;45.434;9.116;2022-10-17T00:01:20;53.50;;;41.20;;
59970;SDS011;45825;45.434;9.116;2022-10-17T00:03:46;57.05;;;44.28;;
59970;SDS011;45825;45.434;9.116;2022-10-17T00:06:12;59.45;;;43.20;;
59970;SDS011;45825;45.434;9.116;2022-10-17T00:08:39;56.78;;;44.60;;
59970;SDS011;45825;45.434;9.116;2022-10-17T00:11:08;62.67;;;44.30;;
59970;SDS011;45825;45.434;9.116;2022-10-17T00:13:38;59.55;;;44.97;;
59970;SDS011;45825;45.434;9.116;2022-10-17T00:16:03;61.30;;;44.13;;
59970;SDS011;45825;45.434;9.116;2022-10-17T00:18:29;57.85;;;43.67;;
59970;SDS011;45825;45.434;9.116;2022-10-17T00:20:55;62.65;;;44.70;;
59970;SDS011;45825;45.434;9.116;2022-10-17T00:23:20;60.28;;;43.63;;
59970;SDS011;45825;45.434;9.116;2022-10-17T00:25:45;64.65;;;44.97;;
59970;SDS011;45825;45.434;9.116;2022-10-17T00:28:11;58.25;;;43.75;;
59970;SDS011;45825;45.434;9.116;2022-10-17T00:30:38;58.45;;;44.17;;
59970;SDS011;45825;45.434;9.116;2022-10-17T00:33:04;62.97;;;45.22;;
59970;SDS011;45825;45.434;9.116;2022-10-17T00:35:29;63.45;;;44.15;;
59970;SDS011;45825;45.434;9.116;2022-10-17T00:37:55;64.70;;;45.95;;
59970;SDS011;45825;45.434;9.116;2022-10-17T00:40:20;63.42;;;45.88;;
59970;SDS011;45825;45.434;9.116;2022-10-17T00:42:46;60.05;;;44.67;;
59970;SDS011;45825;45.434;9.116;2022-10-17T00:45:13;60.90;;;43.80;;
59970;SDS011;45825;45.434;9.116;2022-10-17T00:47:42;63.58;;;44.33;;
59970;SDS011;45825;45.434;9.116;2022-10-17T00:50:12;62.72;;;44.67;;
59970;SDS011;45825;45.434;9.116;2022-10-17T00:52:38;62.38;;;45.38;;
59970;SDS011;45825;45.434;9.116;2022-10-17T00:55:12;60.20;;;45.17;;
59970;SDS011;45825;45.434;9.116;2022-10-17T00:57:41;59.58;;;44.90;;
59970;SDS011;45825;45.434;9.116;2022-10-17T01:00:09;62.60;;;44.28;;
59970;SDS011;45825;45.434;9.116;2022-10-17T01:02:36;58.70;;;44.00;;
59970;SDS011;45825;45.434;9.116;2022-10-17T01:05:01;58.50;;;44.38;;
59970;SDS011;45825;45.434;9.116;2022-10-17T01:07:27;61.22;;;44.65;;
59970;SDS011;45825;45.434;9.116;2022-10-17T01:09:53;58.70;;;44.63;;
59970;SDS011;45825;45.434;9.116;2022-10-17T01:17:43;57.00;;;42.42;;
59970;SDS011;45825;45.434;9.116;2022-10-17T01:20:41;60.70;;;44.22;;
59970;SDS011;45825;45.434;9.116;2022-10-17T01:29:34;57.15;;;42.58;;
59970;SDS011;45825;45.434;9.116;2022-10-17T01:32:15;56.72;;;43.53;;
59970;SDS011;45825;45.434;9.116;2022-10-17T01:38:09;63.42;;;43.25;;
59970;SDS011;45825;45.434;9.116;2022-10-17T01:40:49;59.55;;;44.33;;
59970;SDS011;45825;45.434;9.116;2022-10-17T01:46:00;60.25;;;42.80;;
59970;SDS011;45825;45.434;9.116;2022-10-17T01:48:34;59.25;;;43.47;;
59970;SDS011;45825;45.434;9.116;2022-10-17T01:51:06;61.72;;;43.80;;
59970;SDS011;45825;45.434;9.116;2022-10-17T01:53:37;57.03;;;42.42;;
59970;SDS011;45825;45.434;9.116;2022-10-17T01:56:08;60.70;;;43.28;;
59970;SDS011;45825;45.434;9.116;2022-10-17T01:58:51;60.33;;;43.55;;
59970;SDS011;45825;45.434;9.116;2022-10-17T02:01:20;60.92;;;43.55;;
59970;SDS011;45825;45.434;9.116;2022-10-17T02:03:48;62.92;;;43.72;;
59970;SDS011;45825;45.434;9.116;2022-10-17T02:06:15;63.90;;;44.33;;
59970;SDS011;45825;45.434;9.116;2022-10-17T02:08:42;61.47;;;44.60;;
59970;SDS011;45825;45.434;9.116;2022-10-17T02:11:19;58.63;;;43.25;;
59970;SDS011;45825;45.434;9.116;2022-10-17T02:14:10;62.50;;;42.90;;
59970;SDS011;45825;45.434;9.116;2022-10-17T02:25:17;53.45;;;40.97;;
59970;SDS011;45825;45.434;9.116;2022-10-17T02:27:52;58.22;;;43.67;;
59970;SDS011;45825;45.434;9.116;2022-10-17T02:35:26;65.20;;;43.83;;
59970;SDS011;45825;45.434;9.116;2022-10-17T02:37:55;56.28;;;42.80;;
59970;SDS011;45825;45.434;9.116;2022-10-17T02:40:22;64.05;;;43.60;;
59970;SDS011;45825;45.434;9.116;2022-10-17T02:42:48;57.28;;;42.22;;
59970;SDS011;45825;45.434;9.116;2022-10-17T02:45:16;62.28;;;42.42;;
59970;SDS011;45825;45.434;9.116;2022-10-17T02:48:01;57.97;;;40.85;;
59970;SDS011;45825;45.434;9.116;2022-10-17T02:50:32;57.88;;;42.92;;
59970;SDS011;45825;45.434;9.116;2022-10-17T02:53:24;57.65;;;42.83;;
59970;SDS011;45825;45.434;9.116;2022-10-17T02:55:57;62.90;;;43.38;;
59970;SDS011;45825;45.434;9.116;2022-10-17T02:58:28;61.67;;;44.23;;
59970;SDS011;45825;45.434;9.116;2022-10-17T03:00:57;59.17;;;43.58;;
59970;SDS011;45825;45.434;9.116;2022-10-17T03:03:30;57.88;;;42.42;;
59970;SDS011;45825;45.434;9.116;2022-10-17T03:05:56;61.28;;;42.58;;
59970;SDS011;45825;45.434;9.116;2022-10-17T03:08:22;61.22;;;43.33;;
59970;SDS011;45825;45.434;9.116;2022-10-17T03:10:48;61.65;;;43.25;;
59970;SDS011;45825;45.434;9.116;2022-10-17T03:13:14;59.55;;;41.85;;
59970;SDS011;45825;45.434;9.116;2022-10-17T03:15:40;62.30;;;42.88;;
59970;SDS011;45825;45.434;9.116;2022-10-17T03:18:05;60.60;;;42.75;;
59970;SDS011;45825;45.434;9.116;2022-10-17T03:20:31;55.67;;;42.22;;
59970;SDS011;45825;45.434;9.116;2022-10-17T03:22:56;61.65;;;42.78;;
59970;SDS011;45825;45.434;9.116;2022-10-17T03:25:22;58.55;;;42.50;;
59970;SDS011;45825;45.434;9.116;2022-10-17T03:27:47;59.33;;;42.90;;
59970;SDS011;45825;45.434;9.116;2022-10-17T03:30:18;60.90;;;43.03;;
59970;SDS011;45825;45.434;9.116;2022-10-17T03:32:43;59.58;;;42.45;;
59970;SDS011;45825;45.434;9.116;2022-10-17T03:35:08;59.55;;;42.45;;
59970;SDS011;45825;45.434;9.116;2022-10-17T03:37:34;58.80;;;43.03;;
59970;SDS011;45825;45.434;9.116;2022-10-17T03:39:59;63.85;;;43.00;;
59970;SDS011;45825;45.434;9.116;2022-10-17T03:42:25;62.58;;;43.45;;
59970;SDS011;45825;45.434;9.116;2022-10-17T03:44:50;56.55;;;42.10;;
59970;SDS011;45825;45.434;9.116;2022-10-17T03:47:15;60.28;;;41.50;;
59970;SDS011;45825;45.434;9.116;2022-10-17T03:49:40;58.78;;;42.22;;
59970;SDS011;45825;45.434;9.116;2022-10-17T03:52:09;61.28;;;44.47;;
59970;SDS011;45825;45.434;9.116;2022-10-17T03:54:36;62.78;;;43.55;;
59970;SDS011;45825;45.434;9.116;2022-10-17T03:57:01;64.03;;;43.25;;
59970;SDS011;45825;45.434;9.116;2022-10-17T03:59:27;65.10;;;44.25;;
59970;SDS011;45825;45.434;9.116;2022-10-17T04:01:52;64.45;;;43.92;;
59970;SDS011;45825;45.434;9.116;2022-10-17T04:04:17;63.05;;;43.60;;
59970;SDS011;45825;45.434;9.116;2022-10-17T04:06:42;60.67;;;43.35;;
59970;SDS011;45825;45.434;9.116;2022-10-17T04:09:08;63.85;;;44.03;;
59970;SDS011;45825;45.434;9.116;2022-10-17T04:11:35;63.13;;;43.83;;
59970;SDS011;45825;45.434;9.116;2022-10-17T04:14:00;64.95;;;45.65;;
59970;SDS011;45825;45.434;9.116;2022-10-17T04:16:25;61.15;;;44.35;;
59970;SDS011;45825;45.434;9.116;2022-10-17T04:18:52;62.92;;;45.17;;
59970;SDS011;45825;45.434;9.116;2022-10-17T04:21:19;64.70;;;45.55;;
59970;SDS011;45825;45.434;9.116;2022-10-17T04:23:44;70.13;;;47.97;;
59970;SDS011;45825;45.434;9.116;2022-10-17T04:26:10;66.18;;;47.35;;
59970;SDS011;45825;45.434;9.116;2022-10-17T04:28:35;69.68;;;48.42;;
59970;SDS011;45825;45.434;9.116;2022-10-17T04:31:05;71.78;;;48.50;;
59970;SDS011;45825;45.434;9.116;2022-10-17T04:33:34;72.40;;;49.80;;
59970;SDS011;45825;45.434;9.116;2022-10-17T04:38:29;76.68;;;50.10;;
59970;SDS011;45825;45.434;9.116;2022-10-17T04:40:56;78.20;;;51.22;;
59970;SDS011;45825;45.434;9.116;2022-10-17T04:43:22;75.13;;;49.95;;
59970;SDS011;45825;45.434;9.116;2022-10-17T04:45:47;83.93;;;52.47;;
59970;SDS011;45825;45.434;9.116;2022-10-17T04:48:13;80.82;;;52.58;;
59970;SDS011;45825;45.434;9.116;2022-10-17T04:50:38;83.72;;;53.38;;
59970;SDS011;45825;45.434;9.116;2022-10-17T04:53:03;82.40;;;53.10;;
59970;SDS011;45825;45.434;9.116;2022-10-17T04:55:29;83.15;;;52.20;;
59970;SDS011;45825;45.434;9.116;2022-10-17T04:57:54;80.32;;;50.40;;
59970;SDS011;45825;45.434;9.116;2022-10-17T05:00:19;81.15;;;51.65;;
59970;SDS011;45825;45.434;9.116;2022-10-17T05:02:45;81.25;;;51.97;;
59970;SDS011;45825;45.434;9.116;2022-10-17T05:05:10;80.60;;;51.70;;
59970;SDS011;45825;45.434;9.116;2022-10-17T05:07:38;78.45;;;51.55;;
59970;SDS011;45825;45.434;9.116;2022-10-17T05:10:04;77.88;;;51.03;;
59970;SDS011;45825;45.434;9.116;2022-10-17T05:12:30;79.78;;;53.42;;
59970;SDS011;45825;45.434;9.116;2022-10-17T05:14:55;81.55;;;53.40;;
59970;SDS011;45825;45.434;9.116;2022-10-17T05:17:21;80.47;;;52.42;;
59970;SDS011;45825;45.434;9.116;2022-10-17T05:19:46;79.93;;;50.28;;
59970;SDS011;45825;45.434;9.116;2022-10-17T05:22:11;80.57;;;50.95;;
59970;SDS011;45825;45.434;9.116;2022-10-17T05:24:37;79.75;;;51.45;;
59970;SDS011;45825;45.434;9.116;2022-10-17T05:27:02;75.07;;;49.58;;
59970;SDS011;45825;45.434;9.116;2022-10-17T05:29:28;76.72;;;51.13;;
59970;SDS011;45825;45.434;9.116;2022-10-17T05:31:53;79.57;;;50.78;;
59970;SDS011;45825;45.434;9.116;2022-10-17T05:34:18;76.10;;;49.65;;
59970;SDS011;45825;45.434;9.116;2022-10-17T05:36:44;84.88;;;52.53;;
59970;SDS011;45825;45.434;9.116;2022-10-17T05:39:10;85.78;;;51.40;;
59970;SDS011;45825;45.434;9.116;2022-10-17T05:41:37;82.40;;;52.63;;
59970;SDS011;45825;45.434;9.116;2022-10-17T05:44:03;87.18;;;52.47;;
59970;SDS011;45825;45.434;9.116;2022-10-17T05:46:28;91.00;;;53.80;;
59970;SDS011;45825;45.434;9.116;2022-10-17T05:48:54;92.28;;;55.83;;
59970;SDS011;45825;45.434;9.116;2022-10-17T05:51:19;95.80;;;57.63;;
59970;SDS011;45825;45.434;9.116;2022-10-17T05:53:45;101.30;;;57.58;;
59970;SDS011;45825;45.434;9.116;2022-10-17T05:56:10;105.68;;;59.28;;
59970;SDS011;45825;45.434;9.116;2022-10-17T05:58:43;105.60;;;58.33;;
59970;SDS011;45825;45.434;9.116;2022-10-17T06:01:09;115.07;;;61.65;;
59970;SDS011;45825;45.434;9.116;2022-10-17T06:03:36;106.65;;;60.13;;
59970;SDS011;45825;45.434;9.116;2022-10-17T06:06:05;107.35;;;61.30;;
59970;SDS011;45825;45.434;9.116;2022-10-17T06:08:32;112.35;;;63.10;;
59970;SDS011;45825;45.434;9.116;2022-10-17T06:10:58;115.50;;;61.42;;
59970;SDS011;45825;45.434;9.116;2022-10-17T06:13:23;111.50;;;61.22;;
59970;SDS011;45825;45.434;9.116;2022-10-17T06:15:49;109.40;;;60.55;;
59970;SDS011;45825;45.434;9.116;2022-10-17T06:18:14;113.18;;;62.28;;
59970;SDS011;45825;45.434;9.116;2022-10-17T06:20:39;117.78;;;62.50;;
59970;SDS011;45825;45.434;9.116;2022-10-17T06:23:05;122.72;;;65.85;;
59970;SDS011;45825;45.434;9.116;2022-10-17T06:25:31;123.60;;;64.78;;
59970;SDS011;45825;45.434;9.116;2022-10-17T06:27:57;126.50;;;64.65;;
59970;SDS011;45825;45.434;9.116;2022-10-17T06:30:23;129.82;;;67.35;;
59970;SDS011;45825;45.434;9.116;2022-10-17T06:32:48;131.13;;;69.13;;
59970;SDS011;45825;45.434;9.116;2022-10-17T06:35:14;126.22;;;64.65;;
59970;SDS011;45825;45.434;9.116;2022-10-17T06:37:39;144.70;;;69.35;;
59970;SDS011;45825;45.434;9.116;2022-10-17T06:40:05;144.52;;;71.85;;
59970;SDS011;45825;45.434;9.116;2022-10-17T06:42:32;136.43;;;69.43;;
59970;SDS011;45825;45.434;9.116;2022-10-17T06:44:58;131.85;;;68.60;;
59970;SDS011;45825;45.434;9.116;2022-10-17T06:47:24;130.40;;;66.72;;
59970;SDS011;45825;45.434;9.116;2022-10-17T06:49:49;131.18;;;65.03;;
59970;SDS011;45825;45.434;9.116;2022-10-17T06:52:14;125.25;;;67.65;;
59970;SDS011;45825;45.434;9.116;2022-10-17T06:54:41;126.50;;;64.85;;
59970;SDS011;45825;45.434;9.116;2022-10-17T06:57:07;130.07;;;64.10;;
59970;SDS011;45825;45.434;9.116;2022-10-17T06:59:32;129.77;;;66.72;;
59970;SDS011;45825;45.434;9.116;2022-10-17T07:01:59;129.52;;;64.75;;
59970;SDS011;45825;45.434;9.116;2022-10-17T07:04:25;135.00;;;67.05;;
59970;SDS011;45825;45.434;9.116;2022-10-17T07:06:51;130.10;;;66.57;;
59970;SDS011;45825;45.434;9.116;2022-10-17T07:09:17;150.45;;;77.35;;
59970;SDS011;45825;45.434;9.116;2022-10-17T07:11:42;140.57;;;68.35;;
59970;SDS011;45825;45.434;9.116;2022-10-17T07:14:08;136.90;;;67.70;;
59970;SDS011;45825;45.434;9.116;2022-10-17T07:16:33;155.20;;;71.72;;
59970;SDS011;45825;45.434;9.116;2022-10-17T07:18:59;135.98;;;64.82;;
59970;SDS011;45825;45.434;9.116;2022-10-17T07:21:24;138.20;;;67.05;;
59970;SDS011;45825;45.434;9.116;2022-10-17T07:23:49;142.40;;;67.22;;
59970;SDS011;45825;45.434;9.116;2022-10-17T07:26:15;142.10;;;70.15;;
59970;SDS011;45825;45.434;9.116;2022-10-17T07:28:42;150.05;;;70.65;;
59970;SDS011;45825;45.434;9.116;2022-10-17T07:31:10;151.52;;;69.93;;
59970;SDS011;45825;45.434;9.116;2022-10-17T07:36:06;146.07;;;70.70;;
59970;SDS011;45825;45.434;9.116;2022-10-17T07:38:32;137.88;;;69.93;;
59970;SDS011;45825;45.434;9.116;2022-10-17T07:40:59;140.15;;;69.65;;
59970;SDS011;45825;45.434;9.116;2022-10-17T07:43:26;141.38;;;70.57;;
59970;SDS011;45825;45.434;9.116;2022-10-17T07:45:52;146.18;;;70.78;;
59970;SDS011;45825;45.434;9.116;2022-10-17T07:48:19;140.52;;;69.18;;
59970;SDS011;45825;45.434;9.116;2022-10-17T07:50:45;133.48;;;68.15;;
59970;SDS011;45825;45.434;9.116;2022-10-17T07:53:11;144.93;;;74.63;;
59970;SDS011;45825;45.434;9.116;2022-10-17T07:55:37;147.23;;;75.28;;
59970;SDS011;45825;45.434;9.116;2022-10-17T07:58:02;134.43;;;71.05;;
59970;SDS011;45825;45.434;9.116;2022-10-17T08:00:28;139.40;;;70.53;;
59970;SDS011;45825;45.434;9.116;2022-10-17T08:02:53;146.25;;;69.35;;
59970;SDS011;45825;45.434;9.116;2022-10-17T08:05:18;146.35;;;73.10;;
59970;SDS011;45825;45.434;9.116;2022-10-17T08:07:44;138.77;;;68.95;;
59970;SDS011;45825;45.434;9.116;2022-10-17T08:10:10;131.25;;;67.82;;
59970;SDS011;45825;45.434;9.116;2022-10-17T08:12:37;132.93;;;68.22;;
59970;SDS011;45825;45.434;9.116;2022-10-17T08:15:03;134.82;;;70.38;;
59970;SDS011;45825;45.434;9.116;2022-10-17T08:17:29;137.00;;;69.50;;
59970;SDS011;45825;45.434;9.116;2022-10-17T08:19:54;130.15;;;69.18;;
59970;SDS011;45825;45.434;9.116;2022-10-17T08:22:20;134.43;;;68.35;;
59970;SDS011;45825;45.434;9.116;2022-10-17T08:24:45;125.72;;;65.22;;
59970;SDS011;45825;45.434;9.116;2022-10-17T08:27:11;125.68;;;69.55;;
59970;SDS011;45825;45.434;9.116;2022-10-17T08:29:40;123.38;;;67.22;;
59970;SDS011;45825;45.434;9.116;2022-10-17T08:32:06;126.00;;;66.68;;
59970;SDS011;45825;45.434;9.116;2022-10-17T08:34:33;125.43;;;66.35;;
59970;SDS011;45825;45.434;9.116;2022-10-17T08:36:58;118.47;;;66.00;;
59970;SDS011;45825;45.434;9.116;2022-10-17T08:39:24;120.93;;;66.57;;
59970;SDS011;45825;45.434;9.116;2022-10-17T08:46:55;112.25;;;63.40;;
59970;SDS011;45825;45.434;9.116;2022-10-17T08:51:57;112.63;;;64.50;;
59970;SDS011;45825;45.434;9.116;2022-10-17T08:55:00;116.78;;;64.63;;
59970;SDS011;45825;45.434;9.116;2022-10-17T08:57:19;113.18;;;63.20;;
59970;SDS011;45825;45.434;9.116;2022-10-17T08:59:48;122.65;;;65.78;;
59970;SDS011;45825;45.434;9.116;2022-10-17T09:02:21;119.57;;;65.60;;
59970;SDS011;45825;45.434;9.116;2022-10-17T09:16:19;112.07;;;62.00;;
59970;SDS011;45825;45.434;9.116;2022-10-17T09:19:03;109.57;;;62.72;;
59970;SDS011;45825;45.434;9.116;2022-10-17T09:21:45;108.28;;;64.32;;
59970;SDS011;45825;45.434;9.116;2022-10-17T09:24:32;111.55;;;65.15;;
59970;SDS011;45825;45.434;9.116;2022-10-17T09:27:00;112.72;;;65.03;;
59970;SDS011;45825;45.434;9.116;2022-10-17T09:29:26;105.88;;;63.50;;
59970;SDS011;45825;45.434;9.116;2022-10-17T09:32:02;102.20;;;61.15;;
59970;SDS011;45825;45.434;9.116;2022-10-17T09:34:36;103.95;;;62.08;;
59970;SDS011;45825;45.434;9.116;2022-10-17T09:37:01;94.03;;;59.97;;
59970;SDS011;45825;45.434;9.116;2022-10-17T09:39:27;94.80;;;59.25;;
59970;SDS011;45825;45.434;9.116;2022-10-17T09:41:58;95.57;;;59.33;;
59970;SDS011;45825;45.434;9.116;2022-10-17T09:44:28;90.65;;;56.10;;
59970;SDS011;45825;45.434;9.116;2022-10-17T09:49:45;90.00;;;56.00;;
59970;SDS011;45825;45.434;9.116;2022-10-17T09:52:28;86.25;;;56.22;;
59970;SDS011;45825;45.434;9.116;2022-10-17T09:55:16;77.78;;;51.85;;
59970;SDS011;45825;45.434;9.116;2022-10-17T09:57:52;79.35;;;50.15;;
59970;SDS011;45825;45.434;9.116;2022-10-17T10:00:25;80.30;;;49.17;;
59970;SDS011;45825;45.434;9.116;2022-10-17T10:03:09;77.22;;;51.20;;
59970;SDS011;45825;45.434;9.116;2022-10-17T10:05:58;83.18;;;53.42;;
59970;SDS011;45825;45.434;9.116;2022-10-17T10:08:25;80.20;;;51.50;;
59970;SDS011;45825;45.434;9.116;2022-10-17T10:10:57;81.28;;;53.40;;
59970;SDS011;45825;45.434;9.116;2022-10-17T10:13:28;75.28;;;49.78;;
59970;SDS011;45825;45.434;9.116;2022-10-17T10:16:11;78.28;;;51.42;;
59970;SDS011;45825;45.434;9.116;2022-10-17T10:18:41;72.80;;;49.85;;
59970;SDS011;45825;45.434;9.116;2022-10-17T10:23:33;71.10;;;44.65;;
59970;SDS011;45825;45.434;9.116;2022-10-17T10:26:03;61.53;;;43.60;;
59970;SDS011;45825;45.434;9.116;2022-10-17T10:28:40;62.28;;;44.50;;
59970;SDS011;45825;45.434;9.116;2022-10-17T10:31:16;58.65;;;42.38;;
59970;SDS011;45825;45.434;9.116;2022-10-17T10:34:02;59.47;;;39.22;;
59970;SDS011;45825;45.434;9.116;2022-10-17T10:36:45;57.13;;;39.78;;
59970;SDS011;45825;45.434;9.116;2022-10-17T10:42:05;59.60;;;42.47;;
59970;SDS011;45825;45.434;9.116;2022-10-17T10:44:41;58.13;;;41.60;;
59970;SDS011;45825;45.434;9.116;2022-10-17T10:47:07;57.35;;;41.53;;
59970;SDS011;45825;45.434;9.116;2022-10-17T10:49:39;55.75;;;42.08;;
59970;SDS011;45825;45.434;9.116;2022-10-17T10:52:05;59.28;;;41.80;;
59970;SDS011;45825;45.434;9.116;2022-10-17T10:54:40;57.05;;;42.08;;
59970;SDS011;45825;45.434;9.116;2022-10-17T10:57:19;56.47;;;40.10;;
59970;SDS011;45825;45.434;9.116;2022-10-17T10:59:54;55.55;;;41.90;;
59970;SDS011;45825;45.434;9.116;2022-10-17T11:02:36;52.90;;;39.40;;
59970;SDS011;45825;45.434;9.116;2022-10-17T11:07:57;55.78;;;39.55;;
59970;SDS011;45825;45.434;9.116;2022-10-17T11:10:32;52.15;;;39.95;;
59970;SDS011;45825;45.434;9.116;2022-10-17T11:13:14;56.92;;;40.53;;
59970;SDS011;45825;45.434;9.116;2022-10-17T11:15:49;52.95;;;39.83;;
59970;SDS011;45825;45.434;9.116;2022-10-17T11:26:49;47.78;;;37.45;;
59970;SDS011;45825;45.434;9.116;2022-10-17T11:29:19;50.65;;;38.75;;
59970;SDS011;45825;45.434;9.116;2022-10-17T11:34:21;44.03;;;33.80;;
59970;SDS011;45825;45.434;9.116;2022-10-17T11:36:58;51.05;;;38.13;;
59970;SDS011;45825;45.434;9.116;2022-10-17T11:39:45;48.30;;;38.80;;
59970;SDS011;45825;45.434;9.116;2022-10-17T11:42:21;52.90;;;39.88;;
59970;SDS011;45825;45.434;9.116;2022-10-17T11:44:49;43.72;;;34.70;;
59970;SDS011;45825;45.434;9.116;2022-10-17T11:47:27;51.42;;;40.30;;
59970;SDS011;45825;45.434;9.116;2022-10-17T11:50:21;48.83;;;38.33;;
59970;SDS011;45825;45.434;9.116;2022-10-17T11:55:35;51.42;;;38.90;;
59970;SDS011;45825;45.434;9.116;2022-10-17T12:11:50;49.83;;;39.50;;
59970;SDS011;45825;45.434;9.116;2022-10-17T12:16:59;43.45;;;34.22;;
59970;SDS011;45825;45.434;9.116;2022-10-17T12:19:26;46.30;;;37.00;;
59970;SDS011;45825;45.434;9.116;2022-10-17T12:21:58;46.38;;;39.10;;
59970;SDS011;45825;45.434;9.116;2022-10-17T12:25:15;44.90;;;38.78;;
59970;SDS011;45825;45.434;9.116;2022-10-17T12:29:57;47.97;;;37.53;;
59970;SDS011;45825;45.434;9.116;2022-10-17T12:32:31;45.45;;;36.13;;
59970;SDS011;45825;45.434;9.116;2022-10-17T12:34:57;45.60;;;37.85;;
59970;SDS011;45825;45.434;9.116;2022-10-17T12:43:31;46.63;;;37.90;;
59970;SDS011;45825;45.434;9.116;2022-10-17T12:45:54;39.50;;;34.78;;
59970;SDS011;45825;45.434;9.116;2022-10-17T12:56:10;42.35;;;35.78;;
59970;SDS011;45825;45.434;9.116;2022-10-17T12:58:37;43.90;;;35.88;;
59970;SDS011;45825;45.434;9.116;2022-10-17T13:01:15;43.97;;;36.92;;
59970;SDS011;45825;45.434;9.116;2022-10-17T13:03:44;42.15;;;34.53;;
59970;SDS011;45825;45.434;9.116;2022-10-17T13:06:14;41.70;;;34.75;;
59970;SDS011;45825;45.434;9.116;2022-10-17T13:08:44;48.97;;;37.95;;
59970;SDS011;45825;45.434;9.116;2022-10-17T13:11:13;44.30;;;36.63;;
59970;SDS011;45825;45.434;9.116;2022-10-17T13:13:46;42.25;;;36.42;;
59970;SDS011;45825;45.434;9.116;2022-10-17T13:16:27;46.38;;;36.05;;
59970;SDS011;45825;45.434;9.116;2022-10-17T13:18:57;41.20;;;34.40;;
59970;SDS011;45825;45.434;9.116;2022-10-17T13:21:24;41.70;;;31.42;;
59970;SDS011;45825;45.434;9.116;2022-10-17T13:23:50;43.95;;;34.85;;
59970;SDS011;45825;45.434;9.116;2022-10-17T13:29:03;45.10;;;34.22;;
59970;SDS011;45825;45.434;9.116;2022-10-17T13:31:35;41.42;;;33.35;;
59970;SDS011;45825;45.434;9.116;2022-10-17T13:34:04;44.05;;;34.28;;
59970;SDS011;45825;45.434;9.116;2022-10-17T13:36:31;43.00;;;33.03;;
59970;SDS011;45825;45.434;9.116;2022-10-17T13:38:59;43.25;;;33.85;;
59970;SDS011;45825;45.434;9.116;2022-10-17T13:41:31;39.17;;;31.63;;
59970;SDS011;45825;45.434;9.116;2022-10-17T13:43:59;40.95;;;31.25;;
59970;SDS011;45825;45.434;9.116;2022-10-17T13:46:30;37.42;;;31.00;;
59970;SDS011;45825;45.434;9.116;2022-10-17T13:51:24;38.92;;;29.48;;
59970;SDS011;45825;45.434;9.116;2022-10-17T13:53:51;35.53;;;29.13;;
59970;SDS011;45825;45.434;9.116;2022-10-17T13:56:22;41.67;;;32.80;;
59970;SDS011;45825;45.434;9.116;2022-10-17T13:58:56;37.65;;;30.30;;
59970;SDS011;45825;45.434;9.116;2022-10-17T14:01:25;38.25;;;28.42;;
59970;SDS011;45825;45.434;9.116;2022-10-17T14:03:52;34.95;;;28.77;;
59970;SDS011;45825;45.434;9.116;2022-10-17T14:06:21;38.35;;;29.52;;
59970;SDS011;45825;45.434;9.116;2022-10-17T14:11:40;33.90;;;27.13;;
59970;SDS011;45825;45.434;9.116;2022-10-17T14:14:07;33.72;;;27.40;;
59970;SDS011;45825;45.434;9.116;2022-10-17T14:16:43;39.17;;;28.27;;
59970;SDS011;45825;45.434;9.116;2022-10-17T14:22:16;35.30;;;26.40;;
59970;SDS011;45825;45.434;9.116;2022-10-17T14:24:49;34.65;;;25.77;;
59970;SDS011;45825;45.434;9.116;2022-10-17T14:27:36;32.15;;;25.63;;
59970;SDS011;45825;45.434;9.116;2022-10-17T14:32:51;32.38;;;25.75;;
59970;SDS011;45825;45.434;9.116;2022-10-17T14:35:20;34.13;;;27.80;;
59970;SDS011;45825;45.434;9.116;2022-10-17T14:37:46;34.47;;;26.90;;
59970;SDS011;45825;45.434;9.116;2022-10-17T14:40:14;34.75;;;27.73;;
59970;SDS011;45825;45.434;9.116;2022-10-17T14:42:40;39.42;;;30.08;;
59970;SDS011;45825;45.434;9.116;2022-10-17T14:45:06;41.58;;;30.85;;
59970;SDS011;45825;45.434;9.116;2022-10-17T14:47:36;38.60;;;28.25;;
59970;SDS011;45825;45.434;9.116;2022-10-17T14:50:06;39.22;;;28.10;;
59970;SDS011;45825;45.434;9.116;2022-10-17T14:55:37;41.70;;;30.30;;
59970;SDS011;45825;45.434;9.116;2022-10-17T14:58:15;35.45;;;27.35;;
59970;SDS011;45825;45.434;9.116;2022-10-17T15:00:41;38.60;;;26.98;;
59970;SDS011;45825;45.434;9.116;2022-10-17T15:03:07;36.78;;;27.08;;
59970;SDS011;45825;45.434;9.116;2022-10-17T15:05:33;40.22;;;27.48;;
59970;SDS011;45825;45.434;9.116;2022-10-17T15:07:58;35.90;;;27.13;;
59970;SDS011;45825;45.434;9.116;2022-10-17T15:10:26;38.42;;;27.52;;
59970;SDS011;45825;45.434;9.116;2022-10-17T15:12:55;40.38;;;28.02;;
59970;SDS011;45825;45.434;9.116;2022-10-17T15:15:21;41.90;;;29.20;;
59970;SDS011;45825;45.434;9.116;2022-10-17T15:17:46;42.55;;;27.38;;
59970;SDS011;45825;45.434;9.116;2022-10-17T15:20:12;42.17;;;27.48;;
59970;SDS011;45825;45.434;9.116;2022-10-17T15:22:41;39.90;;;27.40;;
59970;SDS011;45825;45.434;9.116;2022-10-17T15:25:07;36.65;;;27.15;;
59970;SDS011;45825;45.434;9.116;2022-10-17T15:27:32;38.22;;;27.73;;
59970;SDS011;45825;45.434;9.116;2022-10-17T15:29:58;34.33;;;25.38;;
59970;SDS011;45825;45.434;9.116;2022-10-17T15:32:23;39.75;;;28.45;;
59970;SDS011;45825;45.434;9.116;2022-10-17T15:34:48;34.15;;;26.88;;
59970;SDS011;45825;45.434;9.116;2022-10-17T15:37:18;36.90;;;26.15;;
59970;SDS011;45825;45.434;9.116;2022-10-17T15:39:53;39.22;;;29.13;;
59970;SDS011;45825;45.434;9.116;2022-10-17T15:42:24;42.20;;;28.52;;
59970;SDS011;45825;45.434;9.116;2022-10-17T15:44:52;38.35;;;28.65;;
59970;SDS011;45825;45.434;9.116;2022-10-17T15:47:28;35.28;;;26.40;;
59970;SDS011;45825;45.434;9.116;2022-10-17T15:49:56;38.30;;;27.25;;
59970;SDS011;45825;45.434;9.116;2022-10-17T15:52:23;37.17;;;27.77;;
59970;SDS011;45825;45.434;9.116;2022-10-17T15:54:48;40.72;;;29.42;;
59970;SDS011;45825;45.434;9.116;2022-10-17T15:57:21;40.35;;;29.08;;
59970;SDS011;45825;45.434;9.116;2022-10-17T15:59:50;44.55;;;30.73;;
59970;SDS011;45825;45.434;9.116;2022-10-17T16:02:16;42.15;;;30.30;;
59970;SDS011;45825;45.434;9.116;2022-10-17T16:04:43;46.63;;;30.80;;
59970;SDS011;45825;45.434;9.116;2022-10-17T16:07:09;42.15;;;29.60;;
59970;SDS011;45825;45.434;9.116;2022-10-17T16:09:34;38.95;;;30.05;;
59970;SDS011;45825;45.434;9.116;2022-10-17T16:12:04;42.03;;;30.10;;
59970;SDS011;45825;45.434;9.116;2022-10-17T16:14:30;38.53;;;29.23;;
59970;SDS011;45825;45.434;9.116;2022-10-17T16:16:56;41.40;;;29.00;;
59970;SDS011;45825;45.434;9.116;2022-10-17T16:19:23;46.38;;;30.30;;
59970;SDS011;45825;45.434;9.116;2022-10-17T16:21:51;41.90;;;30.50;;
59970;SDS011;45825;45.434;9.116;2022-10-17T16:24:17;45.20;;;32.47;;
59970;SDS011;45825;45.434;9.116;2022-10-17T16:26:42;38.60;;;29.95;;
59970;SDS011;45825;45.434;9.116;2022-10-17T16:29:07;43.83;;;31.67;;
59970;SDS011;45825;45.434;9.116;2022-10-17T16:31:34;44.72;;;32.67;;
59970;SDS011;45825;45.434;9.116;2022-10-17T16:34:01;44.42;;;32.08;;
59970;SDS011;45825;45.434;9.116;2022-10-17T16:36:28;45.08;;;32.90;;
59970;SDS011;45825;45.434;9.116;2022-10-17T16:38:53;46.67;;;33.35;;